createdAt,value
2023-02-22T00:02:10.578Z,8.32
2023-02-22T00:04:39.569Z,8.31
2023-02-22T00:07:07.188Z,8.28
2023-02-22T00:09:34.060Z,8.21
2023-02-22T00:12:01.252Z,8.12
2023-02-22T00:14:28.442Z,8.13
2023-02-22T00:16:59.527Z,8.14
2023-02-22T00:19:28.008Z,8.17
2023-02-22T00:21:54.882Z,8.17
2023-02-22T00:24:24.441Z,8.25
2023-02-22T00:26:55.399Z,8.31
2023-02-22T00:29:23.888Z,8.34
2023-02-22T00:31:50.798Z,8.28
2023-02-22T00:34:17.667Z,8.31
2023-02-22T00:36:49.055Z,8.30
2023-02-22T00:39:16.470Z,8.29
2023-02-22T00:41:43.660Z,8.29
2023-02-22T00:44:10.984Z,8.32
2023-02-22T00:46:38.201Z,8.39
2023-02-22T00:49:05.197Z,8.63
2023-02-22T00:51:33.813Z,8.60
2023-02-22T00:54:00.829Z,8.62
2023-02-22T00:56:27.751Z,8.59
2023-02-22T00:58:54.537Z,8.56
2023-02-22T01:01:21.385Z,8.50
2023-02-22T01:03:48.308Z,8.46
2023-02-22T01:06:15.274Z,8.31
2023-02-22T01:08:45.686Z,8.20
2023-02-22T01:11:15.571Z,8.14
2023-02-22T01:13:42.661Z,8.13
2023-02-22T01:16:09.470Z,8.14
2023-02-22T01:18:37.256Z,8.05
2023-02-22T01:21:05.768Z,7.95
2023-02-22T01:23:33.216Z,7.90
2023-02-22T01:26:00.010Z,7.83
2023-02-22T01:28:26.786Z,7.73
2023-02-22T01:30:56.220Z,7.62
2023-02-22T01:33:23.394Z,7.53
2023-02-22T01:35:51.215Z,7.57
2023-02-22T01:38:18.200Z,7.70
2023-02-22T01:40:49.694Z,7.78
2023-02-22T01:43:29.647Z,7.88
2023-02-22T01:46:03.308Z,7.95
2023-02-22T01:48:38.577Z,7.94
2023-02-22T01:51:20.108Z,8.00
2023-02-22T01:53:54.162Z,8.10
2023-02-22T01:56:23.710Z,8.19
2023-02-22T01:58:58.370Z,8.18
2023-02-22T02:01:28.326Z,8.24
2023-02-22T02:03:59.646Z,8.22
2023-02-22T02:06:31.521Z,8.21
2023-02-22T02:09:28.571Z,8.18
2023-02-22T02:11:56.120Z,8.18
2023-02-22T02:14:22.894Z,8.18
2023-02-22T02:16:53.315Z,8.27
2023-02-22T02:19:45.642Z,8.45
2023-02-22T02:22:26.976Z,8.62
2023-02-22T02:25:40.696Z,8.74
2023-02-22T02:28:25.276Z,8.78
2023-02-22T02:31:21.384Z,8.83
2023-02-22T02:34:12.075Z,8.97
2023-02-22T02:37:01.003Z,9.09
2023-02-22T02:39:51.169Z,9.20
2023-02-22T02:42:23.466Z,9.21
2023-02-22T02:45:02.612Z,9.20
2023-02-22T02:47:35.671Z,9.21
2023-02-22T02:50:09.196Z,9.22
2023-02-22T02:52:37.439Z,9.19
2023-02-22T02:55:06.996Z,9.18
2023-02-22T02:57:33.792Z,9.16
2023-02-22T03:00:00.605Z,9.17
2023-02-22T03:02:55.104Z,9.17
2023-02-22T03:05:31.815Z,9.19
2023-02-22T03:08:31.605Z,9.16
2023-02-22T03:11:17.432Z,9.21
2023-02-22T03:14:12.057Z,9.25
2023-02-22T03:17:04.613Z,9.28
2023-02-22T03:19:38.554Z,9.19
2023-02-22T03:22:16.492Z,9.19
2023-02-22T03:24:58.886Z,9.05
2023-02-22T03:27:49.108Z,9.06
2023-02-22T03:30:31.966Z,9.03
2023-02-22T03:33:12.392Z,9.00
2023-02-22T03:35:48.868Z,9.06
2023-02-22T03:38:19.068Z,9.05
2023-02-22T03:40:51.031Z,9.09
2023-02-22T03:43:25.923Z,9.08
2023-02-22T03:45:53.358Z,9.10
2023-02-22T03:48:41.710Z,9.09
2023-02-22T03:51:08.591Z,8.94
2023-02-22T03:53:37.143Z,8.82
2023-02-22T03:56:08.486Z,8.60
2023-02-22T03:58:37.713Z,8.63
2023-02-22T04:01:05.005Z,8.56
2023-02-22T04:03:31.850Z,8.53
2023-02-22T04:05:58.638Z,8.50
2023-02-22T04:08:25.447Z,8.51
2023-02-22T04:10:52.516Z,8.37
2023-02-22T04:13:19.389Z,8.32
2023-02-22T04:15:46.275Z,8.24
2023-02-22T04:18:14.066Z,8.12
2023-02-22T04:20:40.902Z,7.97
2023-02-22T04:23:07.719Z,7.87
2023-02-22T04:25:34.500Z,7.77
2023-02-22T04:28:01.322Z,7.73
2023-02-22T04:30:30.074Z,7.56
2023-02-22T04:32:57.411Z,7.44
2023-02-22T04:35:24.408Z,7.27
2023-02-22T04:37:51.286Z,7.20
2023-02-22T04:40:18.506Z,7.27
2023-02-22T04:42:45.286Z,7.34
2023-02-22T04:45:13.286Z,7.30
2023-02-22T04:47:40.235Z,7.28
2023-02-22T04:50:11.022Z,7.25
2023-02-22T04:52:37.843Z,7.05
2023-02-22T04:55:05.320Z,7.00
2023-02-22T04:57:32.508Z,6.92
2023-02-22T04:59:59.503Z,6.85
2023-02-22T05:02:26.473Z,6.74
2023-02-22T05:04:53.414Z,6.77
2023-02-22T05:07:20.216Z,6.68
2023-02-22T05:09:47.000Z,6.62
2023-02-22T05:12:13.817Z,6.43
2023-02-22T05:14:41.485Z,6.35
2023-02-22T05:17:08.282Z,6.33
2023-02-22T05:19:35.123Z,6.32
2023-02-22T05:22:01.972Z,6.31
2023-02-22T05:24:28.720Z,6.34
2023-02-22T05:26:55.529Z,6.35
2023-02-22T05:29:22.328Z,6.41
2023-02-22T05:31:49.243Z,6.44
2023-02-22T05:34:16.569Z,6.51
2023-02-22T05:36:43.373Z,6.92
2023-02-22T05:39:10.185Z,7.00
2023-02-22T05:41:36.931Z,6.93
2023-02-22T05:44:03.978Z,6.90
2023-02-22T05:46:30.906Z,6.85
2023-02-22T05:48:57.816Z,6.87
2023-02-22T05:51:24.843Z,6.86
2023-02-22T05:53:52.514Z,6.85
2023-02-22T05:56:28.641Z,6.79
2023-02-22T05:58:55.761Z,6.78
2023-02-22T06:01:23.075Z,6.63
2023-02-22T06:03:51.676Z,6.49
2023-02-22T06:06:22.652Z,6.47
2023-02-22T06:08:49.864Z,6.51
2023-02-22T06:11:17.162Z,6.56
2023-02-22T06:13:51.530Z,6.50
2023-02-22T06:16:19.500Z,6.50
2023-02-22T06:18:46.825Z,6.52
2023-02-22T06:21:13.699Z,6.49
2023-02-22T06:23:40.470Z,6.50
2023-02-22T06:26:07.318Z,6.51
2023-02-22T06:28:34.113Z,6.57
2023-02-22T06:31:00.919Z,6.61
2023-02-22T06:33:27.719Z,6.73
2023-02-22T06:35:54.521Z,6.84
2023-02-22T06:38:24.667Z,6.98
2023-02-22T06:40:52.100Z,7.05
2023-02-22T06:43:19.279Z,7.18
2023-02-22T06:45:46.555Z,7.34
2023-02-22T06:48:13.909Z,7.47
2023-02-22T06:50:40.707Z,7.65
2023-02-22T06:53:07.549Z,7.79
2023-02-22T06:55:35.613Z,7.92
2023-02-22T06:58:04.858Z,8.06
2023-02-22T07:00:32.639Z,8.17
2023-02-22T07:03:00.521Z,8.28
2023-02-22T07:05:28.504Z,8.39
2023-02-22T07:08:02.780Z,8.66
2023-02-22T07:10:31.522Z,8.83
2023-02-22T07:12:58.424Z,8.93
2023-02-22T07:15:27.775Z,9.06
2023-02-22T07:17:55.088Z,9.38
2023-02-22T07:20:24.354Z,9.61
2023-02-22T07:22:51.506Z,9.80
2023-02-22T07:25:19.649Z,10.04
2023-02-22T07:27:47.376Z,10.21
2023-02-22T07:30:25.908Z,10.29
2023-02-22T07:32:55.098Z,10.58
2023-02-22T07:35:36.583Z,10.81
2023-02-22T07:38:06.104Z,10.75
2023-02-22T07:40:32.881Z,10.86
2023-02-22T07:43:16.692Z,11.03
2023-02-22T07:45:44.467Z,11.23
2023-02-22T07:48:12.603Z,11.45
2023-02-22T07:50:40.391Z,11.68
2023-02-22T07:53:12.847Z,11.95
2023-02-22T07:55:39.691Z,12.28
2023-02-22T07:58:08.870Z,12.65
2023-02-22T08:00:40.434Z,13.06
2023-02-22T08:03:13.453Z,13.23
2023-02-22T08:05:45.514Z,13.68
2023-02-22T08:08:12.644Z,13.87
2023-02-22T08:10:39.415Z,13.49
2023-02-22T08:13:06.374Z,13.48
2023-02-22T08:15:36.490Z,13.79
2023-02-22T08:18:09.094Z,13.67
2023-02-22T08:20:37.359Z,14.28
2023-02-22T08:23:05.665Z,14.52
2023-02-22T08:25:33.034Z,14.56
2023-02-22T08:28:10.758Z,14.88
2023-02-22T08:30:40.539Z,15.35
2023-02-22T08:33:07.714Z,15.82
2023-02-22T08:35:34.772Z,15.75
2023-02-22T08:38:05.968Z,15.97
2023-02-22T08:40:37.324Z,16.17
2023-02-22T08:43:04.674Z,15.93
2023-02-22T08:45:31.524Z,16.43
2023-02-22T08:47:59.417Z,17.12
2023-02-22T08:50:32.007Z,16.90
2023-02-22T08:53:01.986Z,16.57
2023-02-22T08:55:32.895Z,16.88
2023-02-22T08:58:02.798Z,17.74
2023-02-22T09:00:33.209Z,18.63
2023-02-22T09:03:05.788Z,18.99
2023-02-22T09:05:33.510Z,19.30
2023-02-22T09:08:01.418Z,19.80
2023-02-22T09:10:32.160Z,20.03
2023-02-22T09:13:00.785Z,19.96
2023-02-22T09:15:28.590Z,19.86
2023-02-22T09:17:55.912Z,20.24
2023-02-22T09:20:24.597Z,19.56
2023-02-22T09:22:52.672Z,19.14
2023-02-22T09:25:20.974Z,19.37
2023-02-22T09:27:52.368Z,19.54
2023-02-22T09:30:31.959Z,19.45
2023-02-22T09:33:03.586Z,18.77
2023-02-22T09:35:31.026Z,18.88
2023-02-22T09:38:00.125Z,18.61
2023-02-22T09:40:30.803Z,18.94
2023-02-22T09:43:37.889Z,18.74
2023-02-22T09:46:37.698Z,17.95
2023-02-22T09:49:13.832Z,18.56
2023-02-22T09:51:52.561Z,18.86
2023-02-22T09:54:35.867Z,19.30
2023-02-22T09:57:08.634Z,19.31
2023-02-22T09:59:57.449Z,19.56
2023-02-22T10:02:31.212Z,19.99
2023-02-22T10:05:00.946Z,20.47
2023-02-22T10:07:47.482Z,19.88
2023-02-22T10:10:23.183Z,20.01
2023-02-22T10:13:22.151Z,20.28
2023-02-22T10:16:28.215Z,20.25
2023-02-22T10:19:22.418Z,21.04
2023-02-22T10:22:11.314Z,20.95
2023-02-22T10:25:27.154Z,20.79
2023-02-22T10:28:19.985Z,21.65
2023-02-22T10:30:56.430Z,21.69
2023-02-22T10:33:32.353Z,20.35
2023-02-22T10:35:59.227Z,19.94
2023-02-22T10:38:32.687Z,20.96
2023-02-22T10:41:09.207Z,21.76
2023-02-22T10:43:40.992Z,22.14
2023-02-22T10:46:13.453Z,22.63
2023-02-22T10:48:42.920Z,23.85
2023-02-22T10:51:10.455Z,23.41
2023-02-22T10:53:38.587Z,23.61
2023-02-22T10:56:21.272Z,22.96
2023-02-22T10:59:05.768Z,23.10
2023-02-22T11:01:32.585Z,23.04
2023-02-22T11:04:12.229Z,23.04
2023-02-22T11:06:42.390Z,22.92
2023-02-22T11:09:24.495Z,23.21
2023-02-22T11:12:16.802Z,23.22
2023-02-22T11:14:43.590Z,23.60
2023-02-22T11:17:17.630Z,22.95
2023-02-22T11:19:49.342Z,23.41
2023-02-22T11:22:41.368Z,24.44
2023-02-22T11:25:08.846Z,24.99
2023-02-22T11:27:47.006Z,24.32
2023-02-22T11:30:32.686Z,24.62
2023-02-22T11:33:15.901Z,25.44
2023-02-22T11:36:05.881Z,25.95
2023-02-22T11:38:36.828Z,26.03
2023-02-22T11:41:22.875Z,26.13
2023-02-22T11:43:51.754Z,27.09
2023-02-22T11:46:30.863Z,26.55
2023-02-22T11:49:17.796Z,27.37
2023-02-22T11:52:28.152Z,27.31
2023-02-22T11:55:36.364Z,27.03
2023-02-22T11:58:33.324Z,27.23
2023-02-22T12:01:07.784Z,26.16
2023-02-22T12:04:22.447Z,25.73
2023-02-22T12:07:21.758Z,25.51
2023-02-22T12:10:18.271Z,25.06
2023-02-22T12:13:19.446Z,24.44
2023-02-22T12:16:32.623Z,24.49
2023-02-22T12:19:11.448Z,25.01
2023-02-22T12:21:43.772Z,24.86
2023-02-22T12:24:17.091Z,25.70
2023-02-22T12:26:50.681Z,26.58
2023-02-22T12:30:07.201Z,27.46
2023-02-22T12:32:47.469Z,27.74
2023-02-22T12:35:28.570Z,27.86
2023-02-22T12:38:13.038Z,28.33
2023-02-22T12:41:29.775Z,26.89
2023-02-22T12:44:14.618Z,26.66
2023-02-22T12:46:47.917Z,27.18
2023-02-22T12:49:38.641Z,27.77
2023-02-22T12:52:43.150Z,28.82
2023-02-22T12:55:17.027Z,29.94
2023-02-22T12:57:57.125Z,30.68
2023-02-22T13:00:37.946Z,31.95
2023-02-22T13:03:39.557Z,32.73
2023-02-22T13:06:49.557Z,32.78
2023-02-22T13:09:39.625Z,33.67
2023-02-22T13:13:04.682Z,31.40
2023-02-22T13:15:52.836Z,29.91
2023-02-22T13:18:42.639Z,31.79
2023-02-22T13:21:37.037Z,34.71
2023-02-22T13:24:18.532Z,35.86
2023-02-22T13:27:00.115Z,34.62
2023-02-22T13:29:34.666Z,33.71
2023-02-22T13:32:28.514Z,33.14
2023-02-22T13:35:48.885Z,31.57
2023-02-22T13:38:57.952Z,31.78
2023-02-22T13:41:48.266Z,31.23
2023-02-22T13:44:52.294Z,30.93
2023-02-22T13:47:50.023Z,29.99
2023-02-22T13:50:49.697Z,31.05
2023-02-22T13:53:28.397Z,32.07
2023-02-22T13:55:59.322Z,32.69
2023-02-22T13:58:26.671Z,33.61
2023-02-22T14:00:55.605Z,33.26
2023-02-22T14:03:23.986Z,33.96
2023-02-22T14:05:53.821Z,34.45
2023-02-22T14:08:21.705Z,34.80
2023-02-22T14:11:00.573Z,33.77
2023-02-22T14:13:33.358Z,32.48
2023-02-22T14:16:00.194Z,31.45
2023-02-22T14:18:41.734Z,29.93
2023-02-22T14:21:12.536Z,28.70
2023-02-22T14:23:43.537Z,28.20
2023-02-22T14:26:22.806Z,27.09
2023-02-22T14:29:10.352Z,26.34
2023-02-22T14:31:43.421Z,25.62
2023-02-22T14:34:34.914Z,25.12
2023-02-22T14:37:19.899Z,25.39
2023-02-22T14:39:52.734Z,25.66
2023-02-22T14:42:28.251Z,27.06
2023-02-22T14:45:20.008Z,27.92
2023-02-22T14:48:27.980Z,28.16
2023-02-22T14:51:11.764Z,27.11
2023-02-22T14:53:57.428Z,26.54
2023-02-22T14:56:39.465Z,25.88
2023-02-22T14:59:24.053Z,25.68
2023-02-22T15:02:12.783Z,24.95
2023-02-22T15:04:43.771Z,24.34
2023-02-22T15:07:29.103Z,23.69
2023-02-22T15:10:23.869Z,23.39
2023-02-22T15:13:11.380Z,23.00
2023-02-22T15:15:54.901Z,22.92
2023-02-22T15:18:30.094Z,22.85
2023-02-22T15:21:06.932Z,22.28
2023-02-22T15:23:54.210Z,22.49
2023-02-22T15:26:31.105Z,23.22
2023-02-22T15:28:59.753Z,23.60
2023-02-22T15:31:39.758Z,23.71
2023-02-22T15:34:18.978Z,23.28
2023-02-22T15:36:51.200Z,22.90
2023-02-22T15:39:29.722Z,22.48
2023-02-22T15:42:20.872Z,22.35
2023-02-22T15:44:52.344Z,21.95
2023-02-22T15:47:18.989Z,21.81
2023-02-22T15:49:46.773Z,21.64
2023-02-22T15:52:31.834Z,21.55
2023-02-22T15:54:58.669Z,21.48
2023-02-22T15:57:27.363Z,21.46
2023-02-22T15:59:57.259Z,21.38
2023-02-22T16:02:37.298Z,21.20
2023-02-22T16:05:09.909Z,21.01
2023-02-22T16:07:50.506Z,20.83
2023-02-22T16:10:33.454Z,20.75
2023-02-22T16:13:31.484Z,20.39
2023-02-22T16:16:05.919Z,20.23
2023-02-22T16:18:36.078Z,20.12
2023-02-22T16:21:13.917Z,19.94
2023-02-22T16:24:10.289Z,19.86
2023-02-22T16:26:41.309Z,19.78
2023-02-22T16:29:09.586Z,19.63
2023-02-22T16:31:39.995Z,19.12
2023-02-22T16:34:08.420Z,19.01
2023-02-22T16:36:45.026Z,18.80
2023-02-22T16:39:21.322Z,18.66
2023-02-22T16:41:48.612Z,18.44
2023-02-22T16:44:16.886Z,18.25
2023-02-22T16:46:44.051Z,18.02
2023-02-22T16:49:12.499Z,17.89
2023-02-22T16:51:49.908Z,17.77
2023-02-22T16:54:28.431Z,17.67
2023-02-22T16:56:57.072Z,17.48
2023-02-22T16:59:23.922Z,17.29
2023-02-22T17:01:50.748Z,17.18
2023-02-22T17:04:24.141Z,17.01
2023-02-22T17:06:51.437Z,16.88
2023-02-22T17:09:22.140Z,16.76
2023-02-22T17:11:51.544Z,16.62
2023-02-22T17:14:23.207Z,16.54
2023-02-22T17:16:53.384Z,16.48
2023-02-22T17:19:24.352Z,16.42
2023-02-22T17:21:51.176Z,16.33
2023-02-22T17:24:22.938Z,16.22
2023-02-22T17:26:53.031Z,16.12
2023-02-22T17:29:20.616Z,15.98
2023-02-22T17:31:48.881Z,15.88
2023-02-22T17:34:15.895Z,15.74
2023-02-22T17:36:43.100Z,15.67
2023-02-22T17:39:10.551Z,15.64
2023-02-22T17:41:40.348Z,15.55
2023-02-22T17:44:07.733Z,15.57
2023-02-22T17:46:36.637Z,15.63
2023-02-22T17:49:03.542Z,15.49
2023-02-22T17:51:30.401Z,15.41
2023-02-22T17:53:57.396Z,15.29
2023-02-22T17:56:24.499Z,15.09
2023-02-22T17:58:54.898Z,14.93
2023-02-22T18:01:29.363Z,14.86
2023-02-22T18:04:02.705Z,14.82
2023-02-22T18:06:32.549Z,14.82
2023-02-22T18:09:00.907Z,14.63
2023-02-22T18:11:32.394Z,14.40
2023-02-22T18:13:59.358Z,14.15
2023-02-22T18:16:26.813Z,14.08
2023-02-22T18:18:56.841Z,14.11
2023-02-22T18:21:24.144Z,14.18
2023-02-22T18:23:50.970Z,14.16
2023-02-22T18:26:21.697Z,14.12
2023-02-22T18:28:49.169Z,14.15
2023-02-22T18:31:19.475Z,14.13
2023-02-22T18:33:49.952Z,14.13
2023-02-22T18:36:22.542Z,14.15
2023-02-22T18:38:52.816Z,14.16
2023-02-22T18:41:25.199Z,14.11
2023-02-22T18:43:55.035Z,13.89
2023-02-22T18:46:23.818Z,13.95
2023-02-22T18:48:55.045Z,13.97
2023-02-22T18:51:23.216Z,13.94
2023-02-22T18:53:54.736Z,13.82
2023-02-22T18:56:22.222Z,13.83
2023-02-22T18:58:58.640Z,13.67
2023-02-22T19:01:25.891Z,13.75
2023-02-22T19:03:53.237Z,13.76
2023-02-22T19:06:22.488Z,13.82
2023-02-22T19:08:50.754Z,13.86
2023-02-22T19:11:22.141Z,13.86
2023-02-22T19:13:52.102Z,13.89
2023-02-22T19:16:21.753Z,13.96
2023-02-22T19:18:52.322Z,14.02
2023-02-22T19:21:20.310Z,14.03
2023-02-22T19:23:48.288Z,14.04
2023-02-22T19:26:23.891Z,14.02
2023-02-22T19:28:53.438Z,13.94
2023-02-22T19:31:22.512Z,13.83
2023-02-22T19:33:52.507Z,13.63
2023-02-22T19:36:23.014Z,13.52
2023-02-22T19:38:50.038Z,13.49
2023-02-22T19:41:21.768Z,13.41
2023-02-22T19:43:51.485Z,13.35
2023-02-22T19:46:18.884Z,13.28
2023-02-22T19:48:45.744Z,13.25
2023-02-22T19:51:16.750Z,13.19
2023-02-22T19:53:45.045Z,13.25
2023-02-22T19:56:18.072Z,13.09
2023-02-22T19:58:48.262Z,13.18
2023-02-22T20:01:29.031Z,13.19
2023-02-22T20:04:08.317Z,13.16
2023-02-22T20:06:42.278Z,13.04
2023-02-22T20:09:14.239Z,12.87
2023-02-22T20:11:41.079Z,12.65
2023-02-22T20:14:07.942Z,12.46
2023-02-22T20:16:35.509Z,12.36
2023-02-22T20:19:02.361Z,12.29
2023-02-22T20:21:34.625Z,12.25
2023-02-22T20:24:06.683Z,12.10
2023-02-22T20:26:36.639Z,11.91
2023-02-22T20:29:06.142Z,11.65
2023-02-22T20:31:33.341Z,11.60
2023-02-22T20:34:02.339Z,11.30
2023-02-22T20:36:30.423Z,11.48
2023-02-22T20:38:59.929Z,11.53
2023-02-22T20:41:32.747Z,11.53
2023-02-22T20:44:01.711Z,11.58
2023-02-22T20:46:35.549Z,11.60
2023-02-22T20:49:07.193Z,11.59
2023-02-22T20:51:34.988Z,11.64
2023-02-22T20:54:02.004Z,11.63
2023-02-22T20:56:32.272Z,11.58
2023-02-22T20:59:01.976Z,11.54
2023-02-22T21:01:30.022Z,11.38
2023-02-22T21:04:06.222Z,11.45
2023-02-22T21:06:35.548Z,11.47
2023-02-22T21:09:07.155Z,11.44
2023-02-22T21:11:35.142Z,11.39
2023-02-22T21:14:02.432Z,11.42
2023-02-22T21:16:33.532Z,11.37
2023-02-22T21:19:04.103Z,11.21
2023-02-22T21:21:31.862Z,11.34
2023-02-22T21:24:01.557Z,11.30
2023-02-22T21:26:31.595Z,11.21
2023-02-22T21:29:01.149Z,11.15
2023-02-22T21:31:28.770Z,11.03
2023-02-22T21:33:58.667Z,10.97
2023-02-22T21:36:26.658Z,10.84
2023-02-22T21:38:57.708Z,10.82
2023-02-22T21:41:31.336Z,10.81
2023-02-22T21:43:59.864Z,10.85
2023-02-22T21:46:29.132Z,10.89
2023-02-22T21:48:58.372Z,10.84
2023-02-22T21:51:31.325Z,10.82
2023-02-22T21:54:04.734Z,10.83
2023-02-22T21:56:36.371Z,10.85
2023-02-22T21:59:18.750Z,10.81
2023-02-22T22:01:49.908Z,10.63
2023-02-22T22:04:23.848Z,10.54
2023-02-22T22:06:53.282Z,10.22
2023-02-22T22:09:23.290Z,9.94
2023-02-22T22:12:01.209Z,10.03
2023-02-22T22:14:28.293Z,10.26
2023-02-22T22:16:58.546Z,10.41
2023-02-22T22:19:30.272Z,10.55
2023-02-22T22:22:00.799Z,10.64
2023-02-22T22:24:31.948Z,10.64
2023-02-22T22:27:03.540Z,10.78
2023-02-22T22:29:34.151Z,10.88
2023-02-22T22:32:01.361Z,10.89
2023-02-22T22:34:29.535Z,10.94
2023-02-22T22:36:58.086Z,11.01
2023-02-22T22:39:26.753Z,11.06
2023-02-22T22:41:53.668Z,11.01
2023-02-22T22:44:22.297Z,10.93
2023-02-22T22:46:53.440Z,10.89
2023-02-22T22:49:20.542Z,10.92
2023-02-22T22:51:47.468Z,10.86
2023-02-22T22:54:14.658Z,10.68
2023-02-22T22:56:41.612Z,10.45
2023-02-22T22:59:10.594Z,10.44
2023-02-22T23:01:44.188Z,10.65
2023-02-22T23:04:16.806Z,10.48
2023-02-22T23:06:51.890Z,10.84
2023-02-22T23:09:22.157Z,10.92
2023-02-22T23:12:01.876Z,10.92
2023-02-22T23:14:31.049Z,10.92
2023-02-22T23:17:05.681Z,10.93
2023-02-22T23:19:35.199Z,10.99
2023-02-22T23:22:05.407Z,10.91
2023-02-22T23:24:37.645Z,10.88
2023-02-22T23:27:10.693Z,10.82
2023-02-22T23:29:40.816Z,10.88
2023-02-22T23:32:09.689Z,10.81
2023-02-22T23:34:38.504Z,10.79
2023-02-22T23:37:09.749Z,10.82
2023-02-22T23:39:37.004Z,10.81
2023-02-22T23:42:03.901Z,10.92
2023-02-22T23:44:30.881Z,10.97
2023-02-22T23:46:57.842Z,10.72
2023-02-22T23:49:35.872Z,10.92
2023-02-22T23:52:05.072Z,10.96
2023-02-22T23:54:36.339Z,10.97
2023-02-22T23:57:04.582Z,10.99
2023-02-22T23:59:33.155Z,11.05
